createdAt,value
2023-03-06T00:00:56.988Z,70.26
2023-03-06T00:03:28.001Z,70.39
2023-03-06T00:05:58.009Z,70.39
2023-03-06T00:08:27.043Z,70.33
2023-03-06T00:10:56.325Z,70.43
2023-03-06T00:13:30.215Z,70.37
2023-03-06T00:16:01.021Z,70.33
2023-03-06T00:18:29.322Z,70.40
2023-03-06T00:20:57.436Z,70.13
2023-03-06T00:23:27.618Z,70.17
2023-03-06T00:25:55.882Z,70.23
2023-03-06T00:28:24.085Z,70.22
2023-03-06T00:30:52.174Z,70.29
2023-03-06T00:33:20.281Z,70.15
2023-03-06T00:35:48.385Z,70.13
2023-03-06T00:38:16.411Z,70.18
2023-03-06T00:40:44.593Z,70.13
2023-03-06T00:43:13.213Z,69.99
2023-03-06T00:45:41.326Z,69.87
2023-03-06T00:48:10.903Z,70.06
2023-03-06T00:50:39.009Z,69.92
2023-03-06T00:53:07.055Z,69.87
2023-03-06T00:55:35.199Z,69.95
2023-03-06T00:58:03.241Z,69.94
2023-03-06T01:00:31.530Z,69.88
2023-03-06T01:02:59.625Z,69.93
2023-03-06T01:05:27.876Z,69.91
2023-03-06T01:07:55.923Z,69.78
2023-03-06T01:10:24.064Z,69.69
2023-03-06T01:12:52.061Z,69.72
2023-03-06T01:15:20.743Z,69.64
2023-03-06T01:17:52.474Z,69.73
2023-03-06T01:20:20.831Z,69.66
2023-03-06T01:22:48.967Z,69.68
2023-03-06T01:25:17.129Z,69.73
2023-03-06T01:27:45.140Z,69.85
2023-03-06T01:30:13.637Z,69.66
2023-03-06T01:32:41.781Z,69.77
2023-03-06T01:35:10.355Z,69.75
2023-03-06T01:37:39.316Z,69.72
2023-03-06T01:40:10.427Z,69.54
2023-03-06T01:42:38.596Z,69.42
2023-03-06T01:45:15.528Z,69.43
2023-03-06T01:47:44.899Z,69.45
2023-03-06T01:50:13.171Z,69.39
2023-03-06T01:52:49.464Z,69.45
2023-03-06T01:55:23.908Z,69.22
2023-03-06T01:57:57.778Z,69.31
2023-03-06T02:00:28.052Z,69.35
2023-03-06T02:03:04.069Z,69.41
2023-03-06T02:05:33.180Z,69.34
2023-03-06T02:08:03.928Z,69.33
2023-03-06T02:10:32.418Z,69.26
2023-03-06T02:13:00.911Z,69.33
2023-03-06T02:15:30.189Z,69.15
2023-03-06T02:18:00.455Z,69.13
2023-03-06T02:20:37.579Z,69.22
2023-03-06T02:23:11.257Z,69.18
2023-03-06T02:25:44.226Z,69.22
2023-03-06T02:28:15.272Z,69.29
2023-03-06T02:30:44.946Z,69.12
2023-03-06T02:33:19.282Z,69.05
2023-03-06T02:35:52.691Z,69.24
2023-03-06T02:38:25.029Z,69.18
2023-03-06T02:40:53.275Z,69.05
2023-03-06T02:43:32.052Z,68.94
2023-03-06T02:46:00.206Z,69.06
2023-03-06T02:48:28.372Z,68.97
2023-03-06T02:50:56.425Z,69.06
2023-03-06T02:53:24.670Z,69.02
2023-03-06T02:55:53.444Z,68.97
2023-03-06T02:58:21.531Z,68.88
2023-03-06T03:00:50.195Z,69.13
2023-03-06T03:03:18.629Z,69.09
2023-03-06T03:05:46.656Z,69.12
2023-03-06T03:08:14.744Z,69.10
2023-03-06T03:10:43.003Z,69.04
2023-03-06T03:13:11.052Z,69.07
2023-03-06T03:15:39.150Z,69.00
2023-03-06T03:18:07.389Z,69.07
2023-03-06T03:20:35.418Z,68.95
2023-03-06T03:23:03.797Z,69.17
2023-03-06T03:25:31.948Z,68.93
2023-03-06T03:27:59.947Z,68.85
2023-03-06T03:30:28.049Z,68.93
2023-03-06T03:32:56.667Z,68.84
2023-03-06T03:35:24.708Z,68.86
2023-03-06T03:37:54.740Z,68.76
2023-03-06T03:40:23.242Z,68.92
2023-03-06T03:42:51.336Z,69.01
2023-03-06T03:45:19.514Z,68.81
2023-03-06T03:47:47.628Z,68.92
2023-03-06T03:50:15.719Z,68.90
2023-03-06T03:52:43.872Z,68.96
2023-03-06T03:55:12.062Z,68.98
2023-03-06T03:57:40.127Z,69.05
2023-03-06T04:00:11.996Z,68.92
2023-03-06T04:02:40.144Z,68.92
2023-03-06T04:05:08.753Z,69.02
2023-03-06T04:07:37.072Z,69.14
2023-03-06T04:10:06.841Z,69.02
2023-03-06T04:12:35.929Z,68.90
2023-03-06T04:15:07.732Z,69.00
2023-03-06T04:17:36.096Z,69.03
2023-03-06T04:20:05.109Z,69.01
2023-03-06T04:22:33.147Z,69.03
2023-03-06T04:25:01.361Z,69.08
2023-03-06T04:27:29.364Z,69.15
2023-03-06T04:29:57.457Z,68.99
2023-03-06T04:32:25.591Z,69.01
2023-03-06T04:34:53.605Z,69.16
2023-03-06T04:37:25.442Z,69.07
2023-03-06T04:39:53.559Z,69.03
2023-03-06T04:42:21.940Z,69.02
2023-03-06T04:44:49.996Z,69.00
2023-03-06T04:47:19.206Z,68.99
2023-03-06T04:49:47.747Z,68.90
2023-03-06T04:52:15.755Z,68.91
2023-03-06T04:54:43.868Z,68.85
2023-03-06T04:57:13.034Z,68.92
2023-03-06T04:59:41.144Z,68.76
2023-03-06T05:02:09.270Z,68.86
2023-03-06T05:04:37.355Z,68.78
2023-03-06T05:07:05.562Z,68.90
2023-03-06T05:09:35.001Z,68.83
2023-03-06T05:12:03.806Z,69.01
2023-03-06T05:14:32.360Z,69.02
2023-03-06T05:17:00.602Z,68.91
2023-03-06T05:19:28.635Z,68.92
2023-03-06T05:21:56.840Z,69.13
2023-03-06T05:24:25.943Z,69.14
2023-03-06T05:26:54.036Z,69.26
2023-03-06T05:29:22.591Z,69.22
2023-03-06T05:31:50.664Z,69.19
2023-03-06T05:34:18.770Z,69.22
2023-03-06T05:36:47.461Z,69.09
2023-03-06T05:39:15.584Z,69.24
2023-03-06T05:41:43.680Z,69.18
2023-03-06T05:44:11.735Z,69.14
2023-03-06T05:46:40.015Z,69.15
2023-03-06T05:49:08.433Z,69.18
2023-03-06T05:51:36.564Z,69.05
2023-03-06T05:54:04.600Z,69.12
2023-03-06T05:56:32.966Z,69.09
2023-03-06T05:59:00.954Z,69.28
2023-03-06T06:01:29.939Z,69.24
2023-03-06T06:03:58.107Z,69.29
2023-03-06T06:06:26.194Z,69.37
2023-03-06T06:08:54.256Z,69.45
2023-03-06T06:11:22.336Z,69.49
2023-03-06T06:13:50.558Z,69.61
2023-03-06T06:16:19.546Z,69.68
2023-03-06T06:18:47.954Z,69.70
2023-03-06T06:21:16.130Z,69.92
2023-03-06T06:23:44.323Z,70.02
2023-03-06T06:26:12.511Z,70.05
2023-03-06T06:28:40.587Z,70.27
2023-03-06T06:31:10.799Z,70.43
2023-03-06T06:33:40.293Z,70.36
2023-03-06T06:36:21.594Z,70.55
2023-03-06T06:38:50.162Z,70.68
2023-03-06T06:41:52.988Z,70.60
2023-03-06T06:44:08.546Z,70.69
2023-03-06T06:47:20.873Z,70.92
2023-03-06T06:49:25.857Z,70.82
2023-03-06T06:51:53.913Z,70.78
2023-03-06T06:54:22.464Z,70.95
2023-03-06T06:56:51.275Z,70.95
2023-03-06T06:59:19.448Z,70.91
2023-03-06T07:01:47.666Z,71.16
2023-03-06T07:04:16.746Z,71.16
2023-03-06T07:06:45.485Z,71.29
2023-03-06T07:09:14.181Z,71.38
2023-03-06T07:11:42.407Z,71.37
2023-03-06T07:14:10.425Z,71.42
2023-03-06T07:16:38.510Z,71.40
2023-03-06T07:19:07.487Z,71.42
2023-03-06T07:21:35.716Z,71.54
2023-03-06T07:24:04.827Z,71.47
2023-03-06T07:26:34.784Z,71.57
2023-03-06T07:29:04.508Z,71.48
2023-03-06T07:31:32.633Z,71.68
2023-03-06T07:34:02.530Z,71.57
2023-03-06T07:36:33.027Z,71.58
2023-03-06T07:39:01.216Z,71.54
2023-03-06T07:41:29.283Z,71.62
2023-03-06T07:43:57.444Z,71.68
2023-03-06T07:46:25.780Z,71.58
2023-03-06T07:48:53.914Z,71.37
2023-03-06T07:51:22.745Z,71.41
2023-03-06T07:53:50.797Z,71.21
2023-03-06T07:56:18.878Z,71.28
2023-03-06T07:58:48.304Z,71.21
2023-03-06T08:01:19.984Z,71.04
2023-03-06T08:03:50.223Z,71.01
2023-03-06T08:06:24.328Z,71.00
2023-03-06T08:08:54.480Z,71.02
2023-03-06T08:11:25.685Z,70.99
2023-03-06T08:13:55.309Z,70.94
2023-03-06T08:16:26.348Z,70.94
2023-03-06T08:18:54.840Z,71.21
2023-03-06T08:21:25.846Z,71.11
2023-03-06T08:23:54.290Z,71.20
2023-03-06T08:26:24.803Z,71.29
2023-03-06T08:28:54.455Z,71.26
2023-03-06T08:31:27.823Z,71.61
2023-03-06T08:33:57.570Z,71.41
2023-03-06T08:36:26.511Z,71.47
2023-03-06T08:38:54.834Z,71.35
2023-03-06T08:41:22.985Z,71.42
2023-03-06T08:43:51.143Z,71.40
2023-03-06T08:46:21.525Z,71.67
2023-03-06T08:48:49.574Z,71.77
2023-03-06T08:51:18.688Z,71.89
2023-03-06T08:53:47.023Z,71.48
2023-03-06T08:56:23.802Z,72.01
2023-03-06T08:58:52.981Z,71.77
2023-03-06T09:01:33.197Z,71.79
2023-03-06T09:04:03.779Z,71.78
2023-03-06T09:06:35.429Z,71.87
2023-03-06T09:09:04.509Z,71.78
2023-03-06T09:11:33.168Z,71.82
2023-03-06T09:14:01.593Z,71.71
2023-03-06T09:16:29.877Z,71.88
2023-03-06T09:18:58.864Z,71.82
2023-03-06T09:21:28.660Z,72.07
2023-03-06T09:23:56.977Z,72.15
2023-03-06T09:26:39.699Z,71.74
2023-03-06T09:29:13.181Z,71.67
2023-03-06T09:31:41.238Z,71.64
2023-03-06T09:34:09.368Z,71.75
2023-03-06T09:36:53.293Z,71.95
2023-03-06T09:39:24.157Z,71.80
2023-03-06T09:41:53.091Z,71.77
2023-03-06T09:44:27.850Z,72.11
2023-03-06T09:47:20.505Z,71.88
2023-03-06T09:50:09.923Z,71.95
2023-03-06T09:52:47.073Z,71.82
2023-03-06T09:55:17.991Z,71.96
2023-03-06T09:58:16.821Z,71.77
2023-03-06T10:01:03.456Z,71.87
2023-03-06T10:03:38.991Z,71.49
2023-03-06T10:06:13.041Z,71.40
2023-03-06T10:09:12.018Z,71.31
2023-03-06T10:11:49.527Z,71.60
2023-03-06T10:14:20.388Z,71.34
2023-03-06T10:16:48.803Z,71.19
2023-03-06T10:19:19.240Z,71.02
2023-03-06T10:22:00.300Z,71.57
2023-03-06T10:24:49.826Z,71.45
2023-03-06T10:27:39.758Z,71.01
2023-03-06T10:30:41.527Z,71.50
2023-03-06T10:33:41.926Z,71.01
2023-03-06T10:36:16.368Z,70.92
2023-03-06T10:38:48.385Z,70.73
2023-03-06T10:41:30.270Z,70.81
2023-03-06T10:44:01.148Z,70.78
2023-03-06T10:46:31.933Z,70.81
2023-03-06T10:49:06.350Z,71.04
2023-03-06T10:51:35.679Z,70.67
2023-03-06T10:54:19.712Z,71.04
2023-03-06T10:56:48.280Z,70.75
2023-03-06T10:59:19.046Z,70.35
2023-03-06T11:01:49.529Z,69.69
2023-03-06T11:04:25.700Z,69.88
2023-03-06T11:07:19.648Z,69.52
2023-03-06T11:10:15.799Z,69.18
2023-03-06T11:12:55.786Z,68.84
2023-03-06T11:15:24.859Z,68.47
2023-03-06T11:17:57.855Z,68.20
2023-03-06T11:20:31.789Z,68.14
2023-03-06T11:23:12.500Z,68.45
2023-03-06T11:25:48.841Z,68.10
2023-03-06T11:28:25.793Z,68.07
2023-03-06T11:31:03.973Z,68.47
2023-03-06T11:34:07.611Z,68.48
2023-03-06T11:36:48.092Z,68.38
2023-03-06T11:39:54.816Z,68.08
2023-03-06T11:42:34.956Z,67.78
2023-03-06T11:45:32.824Z,67.63
2023-03-06T11:48:21.025Z,67.48
2023-03-06T11:51:19.277Z,67.44
2023-03-06T11:53:50.574Z,67.53
2023-03-06T11:56:18.663Z,67.28
2023-03-06T11:59:01.556Z,67.49
2023-03-06T12:01:42.085Z,67.27
2023-03-06T12:04:28.878Z,67.23
2023-03-06T12:07:12.055Z,67.07
2023-03-06T12:09:49.881Z,66.54
2023-03-06T12:12:25.908Z,66.16
2023-03-06T12:15:17.129Z,66.26
2023-03-06T12:18:09.868Z,66.17
2023-03-06T12:20:52.954Z,65.95
2023-03-06T12:23:42.150Z,65.81
2023-03-06T12:26:31.155Z,65.99
2023-03-06T12:29:13.234Z,65.83
2023-03-06T12:32:10.151Z,65.93
2023-03-06T12:35:05.955Z,65.98
2023-03-06T12:37:37.032Z,66.23
2023-03-06T12:40:40.266Z,66.01
2023-03-06T12:43:40.122Z,66.00
2023-03-06T12:46:16.438Z,66.20
2023-03-06T12:49:01.401Z,65.93
2023-03-06T12:51:30.433Z,65.63
2023-03-06T12:54:01.748Z,65.76
2023-03-06T12:56:31.410Z,65.89
2023-03-06T12:59:03.392Z,65.85
2023-03-06T13:01:43.624Z,65.78
2023-03-06T13:04:17.592Z,66.03
2023-03-06T13:06:57.585Z,66.24
2023-03-06T13:09:55.882Z,66.39
2023-03-06T13:12:30.055Z,66.23
2023-03-06T13:15:18.845Z,66.17
2023-03-06T13:17:47.038Z,66.17
2023-03-06T13:20:15.037Z,66.50
2023-03-06T13:22:45.266Z,66.70
2023-03-06T13:25:19.637Z,66.80
2023-03-06T13:27:53.967Z,66.87
2023-03-06T13:30:27.282Z,66.63
2023-03-06T13:32:56.287Z,66.76
2023-03-06T13:35:30.753Z,67.02
2023-03-06T13:38:00.254Z,66.72
2023-03-06T13:40:31.855Z,66.84
2023-03-06T13:43:05.250Z,66.78
2023-03-06T13:45:43.297Z,67.01
2023-03-06T13:48:42.996Z,66.81
2023-03-06T13:51:25.189Z,66.96
2023-03-06T13:54:08.913Z,67.26
2023-03-06T13:57:08.111Z,67.33
2023-03-06T14:00:03.102Z,67.13
2023-03-06T14:02:52.772Z,67.20
2023-03-06T14:05:21.782Z,66.82
2023-03-06T14:08:18.592Z,67.14
2023-03-06T14:10:49.130Z,67.07
2023-03-06T14:13:23.057Z,67.05
2023-03-06T14:15:53.337Z,66.78
2023-03-06T14:18:40.043Z,66.60
2023-03-06T14:21:13.566Z,66.82
2023-03-06T14:23:43.834Z,66.70
2023-03-06T14:26:23.998Z,66.53
2023-03-06T14:28:52.157Z,66.34
2023-03-06T14:31:22.816Z,66.30
2023-03-06T14:33:55.134Z,66.34
2023-03-06T14:36:36.424Z,66.08
2023-03-06T14:39:19.656Z,66.14
2023-03-06T14:41:47.962Z,66.17
2023-03-06T14:44:26.599Z,65.87
2023-03-06T14:46:57.704Z,66.15
2023-03-06T14:49:26.963Z,66.04
2023-03-06T14:52:00.715Z,66.81
2023-03-06T14:54:32.176Z,66.68
2023-03-06T14:57:06.060Z,66.41
2023-03-06T14:59:52.126Z,66.34
2023-03-06T15:02:24.547Z,66.58
2023-03-06T15:05:02.423Z,66.35
2023-03-06T15:07:33.452Z,66.63
2023-03-06T15:10:01.860Z,66.63
2023-03-06T15:12:35.426Z,66.55
2023-03-06T15:15:25.581Z,66.68
2023-03-06T15:17:54.484Z,66.62
2023-03-06T15:20:48.710Z,66.51
2023-03-06T15:23:27.319Z,66.44
2023-03-06T15:26:02.236Z,66.66
2023-03-06T15:28:39.596Z,66.45
2023-03-06T15:31:10.537Z,66.34
2023-03-06T15:33:38.742Z,66.47
2023-03-06T15:36:20.474Z,66.54
2023-03-06T15:38:48.741Z,66.45
2023-03-06T15:41:30.491Z,66.49
2023-03-06T15:44:04.642Z,66.64
2023-03-06T15:46:32.852Z,66.45
2023-03-06T15:49:03.412Z,66.59
2023-03-06T15:51:33.455Z,66.62
2023-03-06T15:54:12.026Z,66.68
2023-03-06T15:56:44.057Z,66.77
2023-03-06T15:59:22.162Z,66.55
2023-03-06T16:01:51.170Z,66.68
2023-03-06T16:04:20.039Z,66.49
2023-03-06T16:06:48.341Z,66.55
2023-03-06T16:09:16.559Z,66.55
2023-03-06T16:11:45.335Z,66.53
2023-03-06T16:14:23.835Z,66.73
2023-03-06T16:16:54.296Z,66.72
2023-03-06T16:19:27.338Z,66.92
2023-03-06T16:21:56.621Z,66.74
2023-03-06T16:24:26.342Z,66.85
2023-03-06T16:26:55.375Z,66.72
2023-03-06T16:29:28.162Z,66.65
2023-03-06T16:31:57.792Z,67.03
2023-03-06T16:34:26.164Z,66.98
2023-03-06T16:36:54.384Z,66.92
2023-03-06T16:39:24.043Z,66.91
2023-03-06T16:41:53.168Z,67.04
2023-03-06T16:44:21.720Z,66.90
2023-03-06T16:46:50.605Z,67.07
2023-03-06T16:49:24.423Z,67.02
2023-03-06T16:51:53.354Z,67.30
2023-03-06T16:54:24.285Z,67.14
2023-03-06T16:56:52.474Z,66.94
2023-03-06T16:59:20.588Z,67.17
2023-03-06T17:01:48.824Z,67.31
2023-03-06T17:04:16.901Z,67.20
2023-03-06T17:06:45.059Z,67.34
2023-03-06T17:09:14.494Z,67.32
2023-03-06T17:11:46.761Z,67.39
2023-03-06T17:14:15.112Z,67.65
2023-03-06T17:16:43.263Z,67.67
2023-03-06T17:19:15.309Z,67.34
2023-03-06T17:21:44.431Z,67.63
2023-03-06T17:24:12.561Z,67.59
2023-03-06T17:26:40.758Z,67.65
2023-03-06T17:29:09.730Z,67.69
2023-03-06T17:31:37.829Z,67.69
2023-03-06T17:34:05.962Z,67.89
2023-03-06T17:36:34.255Z,67.77
2023-03-06T17:39:03.219Z,67.85
2023-03-06T17:41:32.980Z,67.79
2023-03-06T17:44:02.032Z,68.02
2023-03-06T17:46:32.268Z,67.73
2023-03-06T17:49:27.617Z,68.01
2023-03-06T17:55:42.260Z,67.90
2023-03-06T17:58:23.409Z,68.24
2023-03-06T18:00:51.647Z,68.06
2023-03-06T18:03:20.060Z,68.14
2023-03-06T18:05:59.602Z,67.97
2023-03-06T18:08:29.904Z,67.90
2023-03-06T18:11:05.474Z,67.62
2023-03-06T18:13:36.997Z,67.91
2023-03-06T18:16:13.992Z,67.98
2023-03-06T18:18:42.209Z,67.86
2023-03-06T18:21:13.869Z,67.89
2023-03-06T18:23:43.879Z,68.29
2023-03-06T18:26:25.129Z,68.00
2023-03-06T18:29:08.136Z,68.40
2023-03-06T18:31:47.043Z,68.21
2023-03-06T18:34:19.288Z,68.50
2023-03-06T18:36:49.400Z,68.39
2023-03-06T18:39:38.708Z,68.27
2023-03-06T18:42:07.803Z,68.07
2023-03-06T18:44:57.757Z,68.27
2023-03-06T18:48:29.645Z,68.38
2023-03-06T18:51:25.825Z,68.59
2023-03-06T18:54:02.582Z,68.78
2023-03-06T19:00:01.132Z,68.76
2023-03-06T19:02:40.000Z,69.13
2023-03-06T19:05:10.728Z,68.81
2023-03-06T19:07:43.571Z,68.93
2023-03-06T19:10:26.889Z,68.95
2023-03-06T19:12:55.807Z,68.86
2023-03-06T19:15:25.236Z,68.87
2023-03-06T19:17:53.840Z,69.14
2023-03-06T19:20:22.992Z,69.05
2023-03-06T19:22:51.315Z,69.12
2023-03-06T19:25:20.348Z,69.07
2023-03-06T19:27:48.473Z,69.02
2023-03-06T19:30:16.780Z,69.24
2023-03-06T19:32:46.126Z,69.12
2023-03-06T19:35:14.299Z,69.24
2023-03-06T19:37:42.463Z,68.86
2023-03-06T19:40:11.438Z,69.48
2023-03-06T19:42:39.744Z,69.50
2023-03-06T19:45:08.568Z,69.32
2023-03-06T19:47:36.664Z,69.17
2023-03-06T19:50:05.203Z,68.91
2023-03-06T19:52:36.539Z,69.11
2023-03-06T19:55:05.596Z,69.19
2023-03-06T19:57:33.896Z,69.10
2023-03-06T20:00:02.118Z,69.45
2023-03-06T20:02:32.624Z,69.12
2023-03-06T20:05:00.827Z,69.32
2023-03-06T20:07:28.967Z,69.13
2023-03-06T20:10:00.778Z,69.23
2023-03-06T20:12:29.133Z,69.13
2023-03-06T20:14:57.297Z,69.43
2023-03-06T20:17:25.563Z,69.10
2023-03-06T20:19:55.963Z,68.89
2023-03-06T20:22:24.092Z,69.08
2023-03-06T20:24:52.673Z,68.96
2023-03-06T20:27:20.782Z,69.30
2023-03-06T20:29:48.904Z,69.33
2023-03-06T20:32:16.995Z,69.31
2023-03-06T20:34:45.395Z,69.07
2023-03-06T20:37:13.556Z,69.27
2023-03-06T20:39:41.740Z,69.21
2023-03-06T20:42:10.005Z,69.14
2023-03-06T20:44:38.188Z,69.52
2023-03-06T20:47:06.318Z,69.29
2023-03-06T20:49:55.519Z,69.12
2023-03-06T20:52:25.284Z,69.49
2023-03-06T20:54:57.125Z,69.43
2023-03-06T20:57:25.215Z,69.43
2023-03-06T21:00:11.158Z,69.42
2023-03-06T21:02:39.584Z,69.24
2023-03-06T21:05:08.837Z,69.32
2023-03-06T21:07:37.578Z,69.21
2023-03-06T21:10:06.498Z,69.61
2023-03-06T21:12:34.588Z,69.47
2023-03-06T21:15:02.907Z,69.87
2023-03-06T21:17:31.195Z,69.57
2023-03-06T21:19:59.418Z,69.97
2023-03-06T21:22:29.785Z,69.70
2023-03-06T21:24:57.984Z,69.27
2023-03-06T21:27:26.158Z,69.83
2023-03-06T21:29:54.271Z,69.56
2023-03-06T21:32:23.191Z,69.38
2023-03-06T21:34:51.492Z,69.64
2023-03-06T21:37:19.614Z,69.53
2023-03-06T21:39:47.661Z,69.86
2023-03-06T21:42:15.804Z,69.98
2023-03-06T21:44:44.280Z,69.99
2023-03-06T21:47:12.364Z,69.81
2023-03-06T21:49:40.483Z,69.97
2023-03-06T21:52:08.584Z,70.19
2023-03-06T21:54:36.634Z,69.80
2023-03-06T21:57:05.062Z,70.12
2023-03-06T21:59:33.165Z,69.86
2023-03-06T22:02:01.217Z,70.14
2023-03-06T22:04:29.366Z,69.78
2023-03-06T22:06:57.424Z,70.12
2023-03-06T22:09:25.526Z,69.84
2023-03-06T22:11:53.705Z,70.20
2023-03-06T22:14:21.840Z,70.24
2023-03-06T22:16:51.462Z,70.35
2023-03-06T22:19:19.644Z,70.32
2023-03-06T22:21:47.742Z,70.28
2023-03-06T22:24:15.786Z,70.35
2023-03-06T22:26:44.159Z,70.50
2023-03-06T22:29:12.226Z,70.25
2023-03-06T22:31:42.192Z,70.42
2023-03-06T22:34:10.428Z,70.55
2023-03-06T22:36:38.600Z,70.57
2023-03-06T22:39:06.767Z,70.61
2023-03-06T22:41:34.870Z,70.49
2023-03-06T22:44:03.193Z,70.59
2023-03-06T22:46:32.957Z,70.73
2023-03-06T22:49:02.045Z,70.36
2023-03-06T22:51:30.251Z,70.52
2023-03-06T22:53:58.454Z,70.31
2023-03-06T22:56:26.570Z,70.39
2023-03-06T22:58:55.024Z,70.66
2023-03-06T23:01:29.879Z,70.46
2023-03-06T23:04:00.527Z,70.29
2023-03-06T23:06:34.975Z,70.46
2023-03-06T23:09:09.239Z,70.46
2023-03-06T23:11:37.445Z,70.74
2023-03-06T23:14:06.000Z,70.87
2023-03-06T23:16:35.862Z,70.86
2023-03-06T23:19:05.234Z,70.90
2023-03-06T23:21:34.568Z,70.87
2023-03-06T23:24:02.999Z,70.92
2023-03-06T23:26:32.085Z,71.11
2023-03-06T23:29:00.704Z,71.12
2023-03-06T23:31:31.117Z,71.50
2023-03-06T23:34:01.748Z,71.23
2023-03-06T23:36:30.671Z,71.39
2023-03-06T23:38:58.792Z,71.30
2023-03-06T23:41:26.990Z,71.50
2023-03-06T23:43:55.454Z,71.52
2023-03-06T23:46:23.603Z,71.85
2023-03-06T23:48:52.405Z,71.66
2023-03-06T23:51:22.410Z,71.89
2023-03-06T23:53:59.061Z,71.65
2023-03-06T23:56:28.614Z,72.00
2023-03-06T23:58:56.815Z,71.98
